sensor_id;sensor_type;location;lat;lon;timestamp;P1;durP1;ratioP1;P2;durP2;ratioP2
49840;SDS011;35738;49.890;5.930;2023-04-25T00:05:06;21.75;;;12.65;;
49840;SDS011;35738;49.890;5.930;2023-04-25T00:07:33;26.50;;;14.30;;
49840;SDS011;35738;49.890;5.930;2023-04-25T00:10:01;23.48;;;13.90;;
49840;SDS011;35738;49.890;5.930;2023-04-25T00:12:28;24.40;;;13.77;;
49840;SDS011;35738;49.890;5.930;2023-04-25T00:14:55;24.45;;;13.68;;
49840;SDS011;35738;49.890;5.930;2023-04-25T00:17:26;20.65;;;13.30;;
49840;SDS011;35738;49.890;5.930;2023-04-25T00:19:53;24.05;;;13.57;;
49840;SDS011;35738;49.890;5.930;2023-04-25T00:22:20;20.10;;;12.88;;
49840;SDS011;35738;49.890;5.930;2023-04-25T00:24:47;20.48;;;12.75;;
49840;SDS011;35738;49.890;5.930;2023-04-25T00:27:13;20.55;;;12.65;;
49840;SDS011;35738;49.890;5.930;2023-04-25T00:29:40;21.45;;;11.95;;
49840;SDS011;35738;49.890;5.930;2023-04-25T00:32:06;18.60;;;11.80;;
49840;SDS011;35738;49.890;5.930;2023-04-25T00:34:33;18.75;;;11.88;;
49840;SDS011;35738;49.890;5.930;2023-04-25T00:37:00;18.25;;;10.40;;
49840;SDS011;35738;49.890;5.930;2023-04-25T00:39:28;19.25;;;11.63;;
49840;SDS011;35738;49.890;5.930;2023-04-25T00:41:55;13.65;;;8.45;;
49840;SDS011;35738;49.890;5.930;2023-04-25T00:44:21;14.68;;;10.05;;
49840;SDS011;35738;49.890;5.930;2023-04-25T00:46:48;13.40;;;8.90;;
49840;SDS011;35738;49.890;5.930;2023-04-25T00:49:15;18.50;;;11.68;;
49840;SDS011;35738;49.890;5.930;2023-04-25T00:51:43;13.82;;;9.07;;
49840;SDS011;35738;49.890;5.930;2023-04-25T00:54:12;17.92;;;10.90;;
49840;SDS011;35738;49.890;5.930;2023-04-25T00:56:40;9.87;;;7.27;;
49840;SDS011;35738;49.890;5.930;2023-04-25T00:59:08;8.82;;;6.88;;
49840;SDS011;35738;49.890;5.930;2023-04-25T01:01:36;11.75;;;7.55;;
49840;SDS011;35738;49.890;5.930;2023-04-25T01:04:04;14.45;;;9.15;;
49840;SDS011;35738;49.890;5.930;2023-04-25T01:06:30;15.43;;;10.05;;
49840;SDS011;35738;49.890;5.930;2023-04-25T01:09:00;120.85;;;13.85;;
49840;SDS011;35738;49.890;5.930;2023-04-25T01:11:28;18.55;;;10.20;;
49840;SDS011;35738;49.890;5.930;2023-04-25T01:13:54;20.10;;;10.80;;
49840;SDS011;35738;49.890;5.930;2023-04-25T01:16:21;34.65;;;10.48;;
49840;SDS011;35738;49.890;5.930;2023-04-25T01:18:50;138.82;;;16.90;;
49840;SDS011;35738;49.890;5.930;2023-04-25T01:21:17;293.87;;;20.83;;
49840;SDS011;35738;49.890;5.930;2023-04-25T01:23:44;288.92;;;20.20;;
49840;SDS011;35738;49.890;5.930;2023-04-25T01:26:11;44.20;;;12.57;;
49840;SDS011;35738;49.890;5.930;2023-04-25T01:28:39;19.25;;;11.27;;
49840;SDS011;35738;49.890;5.930;2023-04-25T01:31:07;18.73;;;11.05;;
49840;SDS011;35738;49.890;5.930;2023-04-25T01:33:34;19.92;;;11.82;;
49840;SDS011;35738;49.890;5.930;2023-04-25T01:36:01;21.37;;;12.43;;
49840;SDS011;35738;49.890;5.930;2023-04-25T01:38:28;28.70;;;12.63;;
49840;SDS011;35738;49.890;5.930;2023-04-25T01:40:55;23.27;;;12.15;;
49840;SDS011;35738;49.890;5.930;2023-04-25T01:43:23;20.17;;;10.55;;
49840;SDS011;35738;49.890;5.930;2023-04-25T01:45:49;18.98;;;11.13;;
49840;SDS011;35738;49.890;5.930;2023-04-25T01:48:17;21.70;;;12.48;;
49840;SDS011;35738;49.890;5.930;2023-04-25T01:50:44;19.05;;;10.93;;
49840;SDS011;35738;49.890;5.930;2023-04-25T01:53:12;30.23;;;11.70;;
49840;SDS011;35738;49.890;5.930;2023-04-25T01:55:39;27.63;;;13.27;;
49840;SDS011;35738;49.890;5.930;2023-04-25T01:58:06;31.95;;;12.80;;
49840;SDS011;35738;49.890;5.930;2023-04-25T02:00:36;25.13;;;12.60;;
49840;SDS011;35738;49.890;5.930;2023-04-25T02:05:39;30.33;;;14.07;;
49840;SDS011;35738;49.890;5.930;2023-04-25T02:08:07;29.23;;;14.45;;
49840;SDS011;35738;49.890;5.930;2023-04-25T02:10:34;25.83;;;13.55;;
49840;SDS011;35738;49.890;5.930;2023-04-25T02:13:02;31.60;;;14.00;;
49840;SDS011;35738;49.890;5.930;2023-04-25T02:15:29;23.42;;;13.20;;
49840;SDS011;35738;49.890;5.930;2023-04-25T02:17:58;25.38;;;13.63;;
49840;SDS011;35738;49.890;5.930;2023-04-25T02:20:26;16.38;;;10.20;;
49840;SDS011;35738;49.890;5.930;2023-04-25T02:22:55;18.30;;;10.65;;
49840;SDS011;35738;49.890;5.930;2023-04-25T02:25:22;26.13;;;13.70;;
49840;SDS011;35738;49.890;5.930;2023-04-25T02:27:49;20.48;;;11.85;;
49840;SDS011;35738;49.890;5.930;2023-04-25T02:30:16;23.90;;;13.63;;
49840;SDS011;35738;49.890;5.930;2023-04-25T02:32:43;27.15;;;13.85;;
49840;SDS011;35738;49.890;5.930;2023-04-25T02:35:10;25.75;;;14.05;;
49840;SDS011;35738;49.890;5.930;2023-04-25T02:37:37;28.10;;;14.45;;
49840;SDS011;35738;49.890;5.930;2023-04-25T02:40:04;21.90;;;12.93;;
49840;SDS011;35738;49.890;5.930;2023-04-25T02:42:32;16.90;;;10.85;;
49840;SDS011;35738;49.890;5.930;2023-04-25T02:44:59;27.85;;;13.90;;
49840;SDS011;35738;49.890;5.930;2023-04-25T02:47:25;24.67;;;13.73;;
49840;SDS011;35738;49.890;5.930;2023-04-25T02:49:52;31.27;;;14.40;;
49840;SDS011;35738;49.890;5.930;2023-04-25T02:52:19;31.85;;;14.10;;
49840;SDS011;35738;49.890;5.930;2023-04-25T02:54:45;28.60;;;14.20;;
49840;SDS011;35738;49.890;5.930;2023-04-25T02:57:12;27.38;;;13.52;;
49840;SDS011;35738;49.890;5.930;2023-04-25T02:59:39;34.28;;;15.63;;
49840;SDS011;35738;49.890;5.930;2023-04-25T03:02:05;34.15;;;13.90;;
49840;SDS011;35738;49.890;5.930;2023-04-25T03:04:32;84.30;;;16.88;;
49840;SDS011;35738;49.890;5.930;2023-04-25T03:06:59;159.30;;;18.07;;
49840;SDS011;35738;49.890;5.930;2023-04-25T03:09:26;431.80;;;26.42;;
49840;SDS011;35738;49.890;5.930;2023-04-25T03:11:52;228.88;;;18.15;;
49840;SDS011;35738;49.890;5.930;2023-04-25T03:14:19;177.60;;;18.00;;
49840;SDS011;35738;49.890;5.930;2023-04-25T03:16:46;205.50;;;18.93;;
49840;SDS011;35738;49.890;5.930;2023-04-25T03:19:12;507.80;;;27.33;;
49840;SDS011;35738;49.890;5.930;2023-04-25T03:21:42;365.92;;;24.00;;
49840;SDS011;35738;49.890;5.930;2023-04-25T03:24:09;192.52;;;18.85;;
49840;SDS011;35738;49.890;5.930;2023-04-25T03:26:37;267.80;;;21.47;;
49840;SDS011;35738;49.890;5.930;2023-04-25T03:29:03;392.92;;;23.15;;
49840;SDS011;35738;49.890;5.930;2023-04-25T03:31:30;222.18;;;18.38;;
49840;SDS011;35738;49.890;5.930;2023-04-25T03:33:58;105.97;;;17.92;;
49840;SDS011;35738;49.890;5.930;2023-04-25T03:36:24;53.72;;;15.15;;
49840;SDS011;35738;49.890;5.930;2023-04-25T03:38:51;51.20;;;15.68;;
49840;SDS011;35738;49.890;5.930;2023-04-25T03:41:17;47.13;;;15.60;;
49840;SDS011;35738;49.890;5.930;2023-04-25T03:43:44;59.97;;;16.13;;
49840;SDS011;35738;49.890;5.930;2023-04-25T03:46:11;95.47;;;41.00;;
49840;SDS011;35738;49.890;5.930;2023-04-25T03:48:37;57.92;;;20.42;;
49840;SDS011;35738;49.890;5.930;2023-04-25T03:51:04;42.70;;;17.58;;
49840;SDS011;35738;49.890;5.930;2023-04-25T03:53:31;29.77;;;14.75;;
49840;SDS011;35738;49.890;5.930;2023-04-25T03:55:57;32.72;;;14.68;;
49840;SDS011;35738;49.890;5.930;2023-04-25T03:58:24;75.30;;;16.42;;
49840;SDS011;35738;49.890;5.930;2023-04-25T04:00:50;39.50;;;15.88;;
49840;SDS011;35738;49.890;5.930;2023-04-25T04:03:17;40.65;;;15.38;;
49840;SDS011;35738;49.890;5.930;2023-04-25T04:05:44;31.92;;;13.88;;
49840;SDS011;35738;49.890;5.930;2023-04-25T04:08:11;43.92;;;14.63;;
49840;SDS011;35738;49.890;5.930;2023-04-25T04:10:38;35.75;;;14.65;;
49840;SDS011;35738;49.890;5.930;2023-04-25T04:13:04;30.33;;;13.68;;
49840;SDS011;35738;49.890;5.930;2023-04-25T04:15:31;92.00;;;16.17;;
49840;SDS011;35738;49.890;5.930;2023-04-25T04:17:59;33.78;;;13.52;;
49840;SDS011;35738;49.890;5.930;2023-04-25T04:20:32;63.70;;;15.32;;
49840;SDS011;35738;49.890;5.930;2023-04-25T04:23:01;105.85;;;17.63;;
49840;SDS011;35738;49.890;5.930;2023-04-25T04:25:27;34.22;;;14.23;;
49840;SDS011;35738;49.890;5.930;2023-04-25T04:27:54;23.65;;;12.63;;
49840;SDS011;35738;49.890;5.930;2023-04-25T04:30:21;34.63;;;15.73;;
49840;SDS011;35738;49.890;5.930;2023-04-25T04:32:50;33.92;;;16.08;;
49840;SDS011;35738;49.890;5.930;2023-04-25T04:35:17;30.02;;;15.38;;
49840;SDS011;35738;49.890;5.930;2023-04-25T04:37:44;39.30;;;17.15;;
49840;SDS011;35738;49.890;5.930;2023-04-25T04:40:12;32.20;;;15.93;;
49840;SDS011;35738;49.890;5.930;2023-04-25T04:42:42;40.50;;;19.05;;
49840;SDS011;35738;49.890;5.930;2023-04-25T04:45:09;33.28;;;17.10;;
49840;SDS011;35738;49.890;5.930;2023-04-25T04:47:36;31.25;;;15.77;;
49840;SDS011;35738;49.890;5.930;2023-04-25T04:50:03;35.60;;;18.08;;
49840;SDS011;35738;49.890;5.930;2023-04-25T04:52:30;36.00;;;18.17;;
49840;SDS011;35738;49.890;5.930;2023-04-25T04:54:57;32.03;;;17.08;;
49840;SDS011;35738;49.890;5.930;2023-04-25T04:57:23;31.65;;;17.75;;
49840;SDS011;35738;49.890;5.930;2023-04-25T04:59:51;35.20;;;16.95;;
49840;SDS011;35738;49.890;5.930;2023-04-25T05:02:17;28.60;;;15.15;;
49840;SDS011;35738;49.890;5.930;2023-04-25T05:04:44;27.92;;;13.35;;
49840;SDS011;35738;49.890;5.930;2023-04-25T05:07:11;26.02;;;11.75;;
49840;SDS011;35738;49.890;5.930;2023-04-25T05:09:37;20.70;;;9.82;;
49840;SDS011;35738;49.890;5.930;2023-04-25T05:12:04;20.48;;;9.15;;
49840;SDS011;35738;49.890;5.930;2023-04-25T05:14:31;16.33;;;8.52;;
49840;SDS011;35738;49.890;5.930;2023-04-25T05:16:58;18.70;;;7.57;;
49840;SDS011;35738;49.890;5.930;2023-04-25T05:19:24;15.38;;;8.10;;
49840;SDS011;35738;49.890;5.930;2023-04-25T05:21:52;18.77;;;7.60;;
49840;SDS011;35738;49.890;5.930;2023-04-25T05:24:19;22.60;;;8.70;;
49840;SDS011;35738;49.890;5.930;2023-04-25T05:26:45;17.67;;;9.00;;
49840;SDS011;35738;49.890;5.930;2023-04-25T05:29:12;18.80;;;8.52;;
49840;SDS011;35738;49.890;5.930;2023-04-25T05:31:38;43.08;;;26.65;;
49840;SDS011;35738;49.890;5.930;2023-04-25T05:34:05;22.23;;;11.30;;
49840;SDS011;35738;49.890;5.930;2023-04-25T05:36:32;24.37;;;11.10;;
49840;SDS011;35738;49.890;5.930;2023-04-25T05:38:58;22.53;;;10.43;;
49840;SDS011;35738;49.890;5.930;2023-04-25T05:41:25;75.95;;;40.47;;
49840;SDS011;35738;49.890;5.930;2023-04-25T05:43:52;27.17;;;13.10;;
49840;SDS011;35738;49.890;5.930;2023-04-25T05:46:23;26.67;;;14.13;;
49840;SDS011;35738;49.890;5.930;2023-04-25T05:48:49;24.63;;;10.60;;
49840;SDS011;35738;49.890;5.930;2023-04-25T05:51:16;24.90;;;11.70;;
49840;SDS011;35738;49.890;5.930;2023-04-25T05:53:44;22.93;;;10.50;;
49840;SDS011;35738;49.890;5.930;2023-04-25T05:56:11;21.47;;;9.33;;
49840;SDS011;35738;49.890;5.930;2023-04-25T05:58:37;24.77;;;10.17;;
49840;SDS011;35738;49.890;5.930;2023-04-25T06:01:04;27.43;;;14.10;;
49840;SDS011;35738;49.890;5.930;2023-04-25T06:03:31;24.67;;;10.23;;
49840;SDS011;35738;49.890;5.930;2023-04-25T06:05:57;21.23;;;9.80;;
49840;SDS011;35738;49.890;5.930;2023-04-25T06:08:24;25.92;;;10.23;;
49840;SDS011;35738;49.890;5.930;2023-04-25T06:10:54;22.85;;;9.63;;
49840;SDS011;35738;49.890;5.930;2023-04-25T06:13:20;21.85;;;10.13;;
49840;SDS011;35738;49.890;5.930;2023-04-25T06:15:47;27.07;;;10.50;;
49840;SDS011;35738;49.890;5.930;2023-04-25T06:18:13;22.92;;;11.27;;
49840;SDS011;35738;49.890;5.930;2023-04-25T06:20:40;26.23;;;10.48;;
49840;SDS011;35738;49.890;5.930;2023-04-25T06:23:07;26.75;;;10.48;;
49840;SDS011;35738;49.890;5.930;2023-04-25T06:25:33;23.42;;;10.30;;
49840;SDS011;35738;49.890;5.930;2023-04-25T06:28:00;20.00;;;9.63;;
49840;SDS011;35738;49.890;5.930;2023-04-25T06:30:27;24.15;;;11.07;;
49840;SDS011;35738;49.890;5.930;2023-04-25T06:32:53;22.90;;;11.85;;
49840;SDS011;35738;49.890;5.930;2023-04-25T06:35:20;25.77;;;12.20;;
49840;SDS011;35738;49.890;5.930;2023-04-25T06:37:47;31.05;;;13.32;;
49840;SDS011;35738;49.890;5.930;2023-04-25T06:40:13;31.80;;;13.57;;
49840;SDS011;35738;49.890;5.930;2023-04-25T06:42:41;30.02;;;13.82;;
49840;SDS011;35738;49.890;5.930;2023-04-25T06:45:07;31.23;;;14.98;;
49840;SDS011;35738;49.890;5.930;2023-04-25T06:47:34;31.20;;;14.15;;
49840;SDS011;35738;49.890;5.930;2023-04-25T06:50:00;30.92;;;14.20;;
49840;SDS011;35738;49.890;5.930;2023-04-25T06:52:27;29.98;;;14.32;;
49840;SDS011;35738;49.890;5.930;2023-04-25T06:54:54;28.45;;;14.85;;
49840;SDS011;35738;49.890;5.930;2023-04-25T06:57:20;30.67;;;14.68;;
49840;SDS011;35738;49.890;5.930;2023-04-25T06:59:47;31.63;;;14.52;;
49840;SDS011;35738;49.890;5.930;2023-04-25T07:02:13;27.23;;;13.80;;
49840;SDS011;35738;49.890;5.930;2023-04-25T07:04:40;32.53;;;13.15;;
49840;SDS011;35738;49.890;5.930;2023-04-25T07:07:07;26.90;;;12.27;;
49840;SDS011;35738;49.890;5.930;2023-04-25T07:09:33;32.83;;;14.55;;
49840;SDS011;35738;49.890;5.930;2023-04-25T07:12:00;28.73;;;13.30;;
49840;SDS011;35738;49.890;5.930;2023-04-25T07:14:27;31.27;;;14.52;;
49840;SDS011;35738;49.890;5.930;2023-04-25T07:16:54;27.33;;;12.88;;
49840;SDS011;35738;49.890;5.930;2023-04-25T07:19:23;28.98;;;14.27;;
49840;SDS011;35738;49.890;5.930;2023-04-25T07:21:52;26.80;;;13.88;;
49840;SDS011;35738;49.890;5.930;2023-04-25T07:24:19;28.53;;;14.47;;
49840;SDS011;35738;49.890;5.930;2023-04-25T07:26:45;28.90;;;13.23;;
49840;SDS011;35738;49.890;5.930;2023-04-25T07:29:12;27.63;;;12.93;;
49840;SDS011;35738;49.890;5.930;2023-04-25T07:31:39;21.35;;;11.93;;
49840;SDS011;35738;49.890;5.930;2023-04-25T07:34:06;24.60;;;12.32;;
49840;SDS011;35738;49.890;5.930;2023-04-25T07:36:32;23.10;;;11.75;;
49840;SDS011;35738;49.890;5.930;2023-04-25T07:38:59;17.35;;;9.18;;
49840;SDS011;35738;49.890;5.930;2023-04-25T07:41:26;15.45;;;8.57;;
49840;SDS011;35738;49.890;5.930;2023-04-25T07:43:52;15.25;;;8.88;;
49840;SDS011;35738;49.890;5.930;2023-04-25T07:46:19;16.17;;;8.20;;
49840;SDS011;35738;49.890;5.930;2023-04-25T07:48:46;12.70;;;7.95;;
49840;SDS011;35738;49.890;5.930;2023-04-25T07:51:12;14.80;;;8.40;;
49840;SDS011;35738;49.890;5.930;2023-04-25T07:53:39;14.98;;;8.70;;
49840;SDS011;35738;49.890;5.930;2023-04-25T07:56:07;16.85;;;8.50;;
49840;SDS011;35738;49.890;5.930;2023-04-25T07:58:34;16.45;;;8.32;;
49840;SDS011;35738;49.890;5.930;2023-04-25T08:01:07;11.98;;;7.88;;
49840;SDS011;35738;49.890;5.930;2023-04-25T08:03:34;11.70;;;7.20;;
49840;SDS011;35738;49.890;5.930;2023-04-25T08:06:01;14.57;;;7.50;;
49840;SDS011;35738;49.890;5.930;2023-04-25T08:08:34;14.25;;;7.82;;
49840;SDS011;35738;49.890;5.930;2023-04-25T08:11:00;15.35;;;8.60;;
49840;SDS011;35738;49.890;5.930;2023-04-25T08:13:27;18.20;;;8.65;;
49840;SDS011;35738;49.890;5.930;2023-04-25T08:15:53;16.00;;;8.70;;
49840;SDS011;35738;49.890;5.930;2023-04-25T08:18:20;17.90;;;8.80;;
49840;SDS011;35738;49.890;5.930;2023-04-25T08:20:47;17.35;;;8.30;;
49840;SDS011;35738;49.890;5.930;2023-04-25T08:23:14;14.38;;;8.68;;
49840;SDS011;35738;49.890;5.930;2023-04-25T08:25:41;12.98;;;7.70;;
49840;SDS011;35738;49.890;5.930;2023-04-25T08:28:07;13.05;;;8.60;;
49840;SDS011;35738;49.890;5.930;2023-04-25T08:30:34;13.02;;;8.00;;
49840;SDS011;35738;49.890;5.930;2023-04-25T08:33:01;12.55;;;6.88;;
49840;SDS011;35738;49.890;5.930;2023-04-25T08:35:27;11.15;;;7.13;;
49840;SDS011;35738;49.890;5.930;2023-04-25T08:37:54;10.63;;;6.30;;
49840;SDS011;35738;49.890;5.930;2023-04-25T08:40:22;12.15;;;6.38;;
49840;SDS011;35738;49.890;5.930;2023-04-25T08:42:55;13.80;;;6.32;;
49840;SDS011;35738;49.890;5.930;2023-04-25T08:45:23;9.98;;;6.00;;
49840;SDS011;35738;49.890;5.930;2023-04-25T08:47:53;8.63;;;5.90;;
49840;SDS011;35738;49.890;5.930;2023-04-25T08:50:21;11.27;;;5.70;;
49840;SDS011;35738;49.890;5.930;2023-04-25T08:52:49;10.93;;;5.40;;
49840;SDS011;35738;49.890;5.930;2023-04-25T08:55:18;10.75;;;5.93;;
49840;SDS011;35738;49.890;5.930;2023-04-25T08:57:47;8.15;;;4.85;;
49840;SDS011;35738;49.890;5.930;2023-04-25T09:00:14;8.40;;;4.43;;
49840;SDS011;35738;49.890;5.930;2023-04-25T09:02:40;10.95;;;5.40;;
49840;SDS011;35738;49.890;5.930;2023-04-25T09:05:11;10.68;;;5.45;;
49840;SDS011;35738;49.890;5.930;2023-04-25T09:07:39;9.20;;;4.65;;
49840;SDS011;35738;49.890;5.930;2023-04-25T09:10:06;7.50;;;4.60;;
49840;SDS011;35738;49.890;5.930;2023-04-25T09:12:33;7.75;;;4.95;;
49840;SDS011;35738;49.890;5.930;2023-04-25T09:17:31;8.15;;;4.78;;
49840;SDS011;35738;49.890;5.930;2023-04-25T09:20:05;10.93;;;5.30;;
49840;SDS011;35738;49.890;5.930;2023-04-25T09:22:36;9.50;;;4.45;;
49840;SDS011;35738;49.890;5.930;2023-04-25T09:25:07;11.60;;;5.15;;
49840;SDS011;35738;49.890;5.930;2023-04-25T09:27:35;8.63;;;5.20;;
49840;SDS011;35738;49.890;5.930;2023-04-25T09:30:02;13.45;;;5.47;;
49840;SDS011;35738;49.890;5.930;2023-04-25T09:32:29;9.45;;;5.68;;
49840;SDS011;35738;49.890;5.930;2023-04-25T09:34:56;11.10;;;5.10;;
49840;SDS011;35738;49.890;5.930;2023-04-25T09:37:24;8.80;;;4.75;;
49840;SDS011;35738;49.890;5.930;2023-04-25T09:39:54;11.43;;;4.72;;
49840;SDS011;35738;49.890;5.930;2023-04-25T09:42:23;10.43;;;4.82;;
49840;SDS011;35738;49.890;5.930;2023-04-25T09:44:52;10.27;;;4.95;;
49840;SDS011;35738;49.890;5.930;2023-04-25T09:47:20;8.40;;;4.45;;
49840;SDS011;35738;49.890;5.930;2023-04-25T09:49:50;8.02;;;4.53;;
49840;SDS011;35738;49.890;5.930;2023-04-25T09:52:19;9.80;;;4.28;;
49840;SDS011;35738;49.890;5.930;2023-04-25T09:54:50;9.85;;;4.80;;
49840;SDS011;35738;49.890;5.930;2023-04-25T09:57:18;8.98;;;4.30;;
49840;SDS011;35738;49.890;5.930;2023-04-25T09:59:50;8.30;;;4.65;;
49840;SDS011;35738;49.890;5.930;2023-04-25T10:02:19;8.68;;;4.32;;
49840;SDS011;35738;49.890;5.930;2023-04-25T10:04:49;7.93;;;4.32;;
49840;SDS011;35738;49.890;5.930;2023-04-25T10:07:19;8.30;;;4.65;;
49840;SDS011;35738;49.890;5.930;2023-04-25T10:09:49;8.73;;;4.60;;
49840;SDS011;35738;49.890;5.930;2023-04-25T10:12:18;10.63;;;4.80;;
49840;SDS011;35738;49.890;5.930;2023-04-25T10:14:46;9.60;;;5.00;;
49840;SDS011;35738;49.890;5.930;2023-04-25T10:17:13;11.68;;;5.10;;
49840;SDS011;35738;49.890;5.930;2023-04-25T10:19:40;9.45;;;4.80;;
49840;SDS011;35738;49.890;5.930;2023-04-25T10:22:08;12.85;;;4.82;;
49840;SDS011;35738;49.890;5.930;2023-04-25T10:24:41;10.38;;;5.20;;
49840;SDS011;35738;49.890;5.930;2023-04-25T10:27:07;8.73;;;5.07;;
49840;SDS011;35738;49.890;5.930;2023-04-25T10:29:35;11.05;;;5.05;;
49840;SDS011;35738;49.890;5.930;2023-04-25T10:32:01;8.80;;;4.57;;
49840;SDS011;35738;49.890;5.930;2023-04-25T10:34:37;11.05;;;5.38;;
49840;SDS011;35738;49.890;5.930;2023-04-25T10:37:13;9.98;;;5.10;;
49840;SDS011;35738;49.890;5.930;2023-04-25T10:39:40;11.65;;;5.28;;
49840;SDS011;35738;49.890;5.930;2023-04-25T10:42:08;9.50;;;4.60;;
49840;SDS011;35738;49.890;5.930;2023-04-25T10:44:36;12.73;;;5.05;;
49840;SDS011;35738;49.890;5.930;2023-04-25T10:47:06;8.15;;;5.03;;
49840;SDS011;35738;49.890;5.930;2023-04-25T10:49:42;12.88;;;5.05;;
49840;SDS011;35738;49.890;5.930;2023-04-25T10:57:37;9.00;;;4.20;;
49840;SDS011;35738;49.890;5.930;2023-04-25T11:02:46;8.27;;;4.28;;
49840;SDS011;35738;49.890;5.930;2023-04-25T11:08:22;9.75;;;4.50;;
49840;SDS011;35738;49.890;5.930;2023-04-25T11:11:03;6.80;;;4.05;;
49840;SDS011;35738;49.890;5.930;2023-04-25T11:13:29;7.55;;;4.22;;
49840;SDS011;35738;49.890;5.930;2023-04-25T11:15:56;12.02;;;4.40;;
49840;SDS011;35738;49.890;5.930;2023-04-25T11:18:40;7.22;;;4.25;;
49840;SDS011;35738;49.890;5.930;2023-04-25T11:21:07;10.38;;;4.75;;
49840;SDS011;35738;49.890;5.930;2023-04-25T11:23:36;9.30;;;4.18;;
49840;SDS011;35738;49.890;5.930;2023-04-25T11:26:03;12.52;;;4.35;;
49840;SDS011;35738;49.890;5.930;2023-04-25T11:28:30;9.60;;;4.28;;
49840;SDS011;35738;49.890;5.930;2023-04-25T11:30:57;8.27;;;3.90;;
49840;SDS011;35738;49.890;5.930;2023-04-25T11:33:24;7.07;;;3.65;;
49840;SDS011;35738;49.890;5.930;2023-04-25T11:35:53;9.23;;;3.90;;
49840;SDS011;35738;49.890;5.930;2023-04-25T11:38:22;5.57;;;3.10;;
49840;SDS011;35738;49.890;5.930;2023-04-25T11:40:52;5.50;;;2.70;;
49840;SDS011;35738;49.890;5.930;2023-04-25T11:43:22;7.55;;;3.10;;
49840;SDS011;35738;49.890;5.930;2023-04-25T11:45:49;7.72;;;3.25;;
49840;SDS011;35738;49.890;5.930;2023-04-25T11:48:20;9.00;;;3.78;;
49840;SDS011;35738;49.890;5.930;2023-04-25T11:50:51;11.93;;;3.33;;
49840;SDS011;35738;49.890;5.930;2023-04-25T11:53:19;9.95;;;3.20;;
49840;SDS011;35738;49.890;5.930;2023-04-25T11:55:46;9.55;;;3.15;;
49840;SDS011;35738;49.890;5.930;2023-04-25T11:58:13;8.27;;;3.70;;
49840;SDS011;35738;49.890;5.930;2023-04-25T12:00:41;6.65;;;3.47;;
49840;SDS011;35738;49.890;5.930;2023-04-25T12:03:17;5.68;;;3.25;;
49840;SDS011;35738;49.890;5.930;2023-04-25T12:05:45;7.30;;;3.50;;
49840;SDS011;35738;49.890;5.930;2023-04-25T12:08:13;7.80;;;3.08;;
49840;SDS011;35738;49.890;5.930;2023-04-25T12:10:41;9.07;;;3.33;;
49840;SDS011;35738;49.890;5.930;2023-04-25T12:15:50;5.68;;;3.08;;
49840;SDS011;35738;49.890;5.930;2023-04-25T12:18:22;6.53;;;3.22;;
49840;SDS011;35738;49.890;5.930;2023-04-25T12:20:52;8.32;;;3.65;;
49840;SDS011;35738;49.890;5.930;2023-04-25T12:23:26;8.85;;;3.50;;
49840;SDS011;35738;49.890;5.930;2023-04-25T12:25:54;9.73;;;3.50;;
49840;SDS011;35738;49.890;5.930;2023-04-25T12:28:22;10.77;;;3.20;;
49840;SDS011;35738;49.890;5.930;2023-04-25T12:30:54;7.82;;;2.88;;
49840;SDS011;35738;49.890;5.930;2023-04-25T12:33:22;7.63;;;2.88;;
49840;SDS011;35738;49.890;5.930;2023-04-25T12:35:55;8.13;;;3.38;;
49840;SDS011;35738;49.890;5.930;2023-04-25T12:41:02;7.55;;;2.80;;
49840;SDS011;35738;49.890;5.930;2023-04-25T12:43:28;7.63;;;2.80;;
49840;SDS011;35738;49.890;5.930;2023-04-25T12:45:55;5.35;;;2.80;;
49840;SDS011;35738;49.890;5.930;2023-04-25T12:48:22;8.52;;;3.05;;
49840;SDS011;35738;49.890;5.930;2023-04-25T12:50:50;8.18;;;2.78;;
49840;SDS011;35738;49.890;5.930;2023-04-25T12:53:21;8.55;;;2.88;;
49840;SDS011;35738;49.890;5.930;2023-04-25T12:55:50;6.72;;;2.88;;
49840;SDS011;35738;49.890;5.930;2023-04-25T12:58:18;5.70;;;2.70;;
49840;SDS011;35738;49.890;5.930;2023-04-25T13:00:46;9.43;;;3.13;;
49840;SDS011;35738;49.890;5.930;2023-04-25T13:03:12;7.53;;;3.00;;
49840;SDS011;35738;49.890;5.930;2023-04-25T13:05:39;8.07;;;3.35;;
49840;SDS011;35738;49.890;5.930;2023-04-25T13:08:06;5.72;;;2.90;;
49840;SDS011;35738;49.890;5.930;2023-04-25T13:10:33;7.47;;;3.08;;
49840;SDS011;35738;49.890;5.930;2023-04-25T13:13:00;10.15;;;2.90;;
49840;SDS011;35738;49.890;5.930;2023-04-25T13:15:27;8.32;;;3.38;;
49840;SDS011;35738;49.890;5.930;2023-04-25T13:17:54;5.10;;;2.83;;
49840;SDS011;35738;49.890;5.930;2023-04-25T13:20:22;4.15;;;2.65;;
49840;SDS011;35738;49.890;5.930;2023-04-25T13:22:52;4.97;;;2.92;;
49840;SDS011;35738;49.890;5.930;2023-04-25T13:25:19;7.28;;;2.72;;
49840;SDS011;35738;49.890;5.930;2023-04-25T13:27:46;10.07;;;3.30;;
49840;SDS011;35738;49.890;5.930;2023-04-25T13:30:12;6.13;;;3.10;;
49840;SDS011;35738;49.890;5.930;2023-04-25T13:32:39;5.35;;;3.17;;
49840;SDS011;35738;49.890;5.930;2023-04-25T13:35:08;9.88;;;3.45;;
49840;SDS011;35738;49.890;5.930;2023-04-25T13:37:39;8.70;;;3.38;;
49840;SDS011;35738;49.890;5.930;2023-04-25T13:40:09;7.05;;;3.00;;
49840;SDS011;35738;49.890;5.930;2023-04-25T13:42:37;8.63;;;3.05;;
49840;SDS011;35738;49.890;5.930;2023-04-25T13:45:05;6.50;;;3.05;;
49840;SDS011;35738;49.890;5.930;2023-04-25T13:47:32;11.27;;;3.40;;
49840;SDS011;35738;49.890;5.930;2023-04-25T13:50:02;4.70;;;3.10;;
49840;SDS011;35738;49.890;5.930;2023-04-25T13:52:30;8.38;;;3.38;;
49840;SDS011;35738;49.890;5.930;2023-04-25T13:54:57;6.28;;;3.40;;
49840;SDS011;35738;49.890;5.930;2023-04-25T13:57:24;8.73;;;3.20;;
49840;SDS011;35738;49.890;5.930;2023-04-25T13:59:51;5.47;;;3.00;;
49840;SDS011;35738;49.890;5.930;2023-04-25T14:02:19;10.52;;;3.40;;
49840;SDS011;35738;49.890;5.930;2023-04-25T14:04:46;7.35;;;3.53;;
49840;SDS011;35738;49.890;5.930;2023-04-25T14:07:13;5.80;;;3.00;;
49840;SDS011;35738;49.890;5.930;2023-04-25T14:09:42;7.25;;;3.45;;
49840;SDS011;35738;49.890;5.930;2023-04-25T14:12:08;6.28;;;2.90;;
49840;SDS011;35738;49.890;5.930;2023-04-25T14:14:35;6.15;;;2.90;;
49840;SDS011;35738;49.890;5.930;2023-04-25T14:17:01;4.85;;;2.58;;
49840;SDS011;35738;49.890;5.930;2023-04-25T14:19:28;6.38;;;2.72;;
49840;SDS011;35738;49.890;5.930;2023-04-25T14:21:55;6.50;;;2.78;;
49840;SDS011;35738;49.890;5.930;2023-04-25T14:24:22;5.40;;;2.70;;
49840;SDS011;35738;49.890;5.930;2023-04-25T14:26:48;6.97;;;3.33;;
49840;SDS011;35738;49.890;5.930;2023-04-25T14:29:15;4.72;;;2.85;;
49840;SDS011;35738;49.890;5.930;2023-04-25T14:31:41;7.80;;;3.55;;
49840;SDS011;35738;49.890;5.930;2023-04-25T14:34:08;5.85;;;3.50;;
49840;SDS011;35738;49.890;5.930;2023-04-25T14:36:35;6.95;;;3.25;;
49840;SDS011;35738;49.890;5.930;2023-04-25T14:39:03;7.45;;;3.40;;
49840;SDS011;35738;49.890;5.930;2023-04-25T14:41:31;8.93;;;3.25;;
49840;SDS011;35738;49.890;5.930;2023-04-25T14:43:58;9.93;;;3.38;;
49840;SDS011;35738;49.890;5.930;2023-04-25T14:46:24;5.88;;;3.40;;
49840;SDS011;35738;49.890;5.930;2023-04-25T14:48:52;9.10;;;3.45;;
49840;SDS011;35738;49.890;5.930;2023-04-25T14:51:19;6.15;;;3.13;;
49840;SDS011;35738;49.890;5.930;2023-04-25T14:53:46;8.02;;;3.58;;
49840;SDS011;35738;49.890;5.930;2023-04-25T14:56:13;6.75;;;3.78;;
49840;SDS011;35738;49.890;5.930;2023-04-25T14:58:39;6.13;;;3.20;;
49840;SDS011;35738;49.890;5.930;2023-04-25T15:01:06;10.02;;;3.67;;